Notice: Undefined index: language in D:\xampp\htdocs\vam\index.php on line 25
Open Air Virtual

 METAR AND TAF INFORMATION
METAR FOR LGKO
ADDS - METARS form results

(1356 UTC 04 April 2020)
Data provider http://aviationweather.gov/metar/data/
 
METAR text: LGKO 041350Z 13023G33KT 9999 SCT025 18/09 Q1007
Conditions at: LGKO (KOS AIRPORT , GR) observed 1350 UTC 04 April 2020
Temperature: 18.0°C (64°F)
Dewpoint: 9.0°C (48°F) [RH = 56%]
Pressure (altimeter): 29.73 inches Hg (1007.0 mb)
Winds: from the SE (130 degrees) at 26 MPH (23 knots; 11.8 m/s)
gusting to 38 MPH (33 knots; 17.0 m/s)
Visibility: 6 or more miles (10+ km)
Ceiling: at least 12,000 feet AGL
Clouds: scattered clouds at 2500 feet AGL
Weather: no significant weather observed at this time

METAR text: LGKO 041320Z 13020G30KT 9999 FEW025 19/10 Q1010
Conditions at: LGKO (KOS AIRPORT , GR) observed 1320 UTC 04 April 2020
Temperature: 19.0°C (66°F)
Dewpoint: 10.0°C (50°F) [RH = 56%]
Pressure (altimeter): 29.82 inches Hg (1010.0 mb)
Winds: from the SE (130 degrees) at 23 MPH (20 knots; 10.3 m/s)
gusting to 34 MPH (30 knots; 15.4 m/s)
Visibility: 6 or more miles (10+ km)
Ceiling: at least 12,000 feet AGL
Clouds: few clouds at 2500 feet AGL
Weather: no significant weather observed at this time

Forecast for: LGKO (KOS AIRPORT , GR)
Text: TAF LGKO 041100Z 0412/0512 12020G35KT 9999 SCT025
Forecast period: 1200 UTC 04 April 2020 to 1200 UTC 05 April 2020
Forecast type: FROM: standard forecast or significant change
Winds: from the ESE (120 degrees) at 23 MPH (20 knots; 10.3 m/s)
gusting to 40 MPH (35 knots; 18.0 m/s)
Visibility: 6 or more miles 10+ km)
Ceiling: at least 12,000 feet AGL
Clouds: scattered clouds at 2500 feet AGL
Weather: no significant weather forecast for this period
Text: PROB30
Forecast period: 1800 UTC 04 April 2020 to 1200 UTC 05 April 2020
Forecast type: TEMPORARY: The following changes expected for less than half the time period
Visibility: 3 miles (5 km)
Ceiling: 2000 feet AGL
Clouds: scattered clouds at 1200 feet AGL
few clouds at 1800 feet AGL
broken clouds at 2000 feet AGL
Weather: RA  (moderate rain)

 AIRPORT MAP

 RUNWAY INFORMATION
Runway 14 Runway length 7841 ft Runway width 148 ft
Runway elevation 412 ft Runway displaced threshold 0 ft Runway heading 148
Runway 32 Runway length 7841 ft Runway width 148 ft
Runway elevation 373 ft Runway displaced threshold 0 ft Runway heading 328

 AIRPORT FREQUENCIES
Type A/G Name IPPOKRATIS Frequency 563.7 MHZ
Type APP Name APP Frequency 119.95 MHZ
Type ATIS Name ATIS Frequency 126.95 MHZ
Type TWR Name IPPOKRATIS Frequency 121.05 MHZ

 AIRPORT NEAR NAVIGATION AIDS
Type VOR-DME Name Kos Frequency 109000 KHZ
Type NDB Name Kos Frequency 311 KHZ



Powered by Virtual Airlines Manager [v2.6.2]